Time;durP1;ratioP1;P1;durP2;ratioP2;P2;SDS_P1;SDS_P2;PMS_P1;PMS_P2;Temp;Humidity;BMP_temperature;BMP_pressure;BME280_temperature;BME280_humidity;BME280_pressure;Samples;Min_cycle;Max_cycle;Signal;HPM_P1;HPM_P2
2024/03/31 00:00:30;;;;;;;0.10;0.10;;;19.90;49.20;;;;;;4988449;28;20399;-47
2024/03/31 00:03:03;;;;;;;0.00;0.00;;;20.00;49.20;;;;;;4997508;28;20537;-48
2024/03/31 00:05:32;;;;;;;0.00;0.00;;;20.00;49.20;;;;;;5006893;28;21062;-48
2024/03/31 00:08:02;;;;;;;0.10;0.10;;;20.00;49.20;;;;;;5007950;28;20225;-48
2024/03/31 00:10:32;;;;;;;0.10;0.10;;;20.00;49.10;;;;;;5007652;28;20289;-49
2024/03/31 00:13:02;;;;;;;0.10;0.10;;;20.00;49.10;;;;;;5007679;28;20732;-50
2024/03/31 00:15:31;;;;;;;0.05;0.05;;;20.10;49.10;;;;;;5007559;28;20600;-49
2024/03/31 00:18:04;;;;;;;0.00;0.00;;;20.10;49.10;;;;;;5006748;28;20225;-47
2024/03/31 00:20:33;;;;;;;0.00;0.00;;;20.10;49.00;;;;;;5008519;28;20205;-48
2024/03/31 00:23:04;;;;;;;0.00;0.00;;;20.10;48.90;;;;;;5008097;28;20657;-50
2024/03/31 00:25:33;;;;;;;0.00;0.00;;;20.10;48.90;;;;;;5020267;28;20314;-48
2024/03/31 00:28:03;;;;;;;0.10;0.10;;;20.10;48.90;;;;;;5016988;28;20224;-47
2024/03/31 00:30:32;;;;;;;0.00;0.00;;;20.20;48.90;;;;;;5008541;28;20684;-46
2024/03/31 00:33:05;;;;;;;0.10;0.10;;;20.20;48.80;;;;;;5007069;28;20205;-48
2024/03/31 00:35:35;;;;;;;0.00;0.00;;;20.20;48.80;;;;;;5007442;28;20204;-49
2024/03/31 00:38:06;;;;;;;0.10;0.10;;;20.20;48.70;;;;;;5007348;28;20228;-47
2024/03/31 00:40:35;;;;;;;0.00;0.00;;;20.20;48.70;;;;;;5006965;28;20200;-48
2024/03/31 00:43:06;;;;;;;0.10;0.10;;;20.30;48.70;;;;;;5007102;28;20641;-47
2024/03/31 00:45:35;;;;;;;0.00;0.00;;;20.30;48.70;;;;;;5007344;28;20613;-48
2024/03/31 00:48:08;;;;;;;0.03;0.03;;;20.30;48.60;;;;;;5006861;28;20228;-46
2024/03/31 00:50:38;;;;;;;0.00;0.00;;;20.30;48.60;;;;;;5005180;28;20185;-47
2024/03/31 00:53:08;;;;;;;0.00;0.00;;;20.30;48.60;;;;;;5007139;28;20204;-46
2024/03/31 00:55:37;;;;;;;0.00;0.00;;;20.30;48.50;;;;;;5006080;28;20201;-45
2024/03/31 00:58:08;;;;;;;0.00;0.00;;;20.30;48.40;;;;;;5006608;28;20227;-47
2024/03/31 01:00:37;;;;;;;0.10;0.10;;;20.40;48.50;;;;;;5004435;28;20192;-46
2024/03/31 01:03:10;;;;;;;0.10;0.10;;;20.40;48.40;;;;;;5006155;28;20555;-46
2024/03/31 01:05:39;;;;;;;0.05;0.05;;;20.40;48.40;;;;;;5006971;28;20196;-47
2024/03/31 01:08:10;;;;;;;0.08;0.08;;;20.40;48.40;;;;;;5008420;28;20370;-46
2024/03/31 01:10:39;;;;;;;0.00;0.00;;;20.50;48.40;;;;;;5010095;28;20189;-46
2024/03/31 01:13:10;;;;;;;0.00;0.00;;;20.50;48.30;;;;;;5008410;28;20354;-47
2024/03/31 01:15:39;;;;;;;0.10;0.10;;;20.40;48.20;;;;;;5010290;28;20193;-47
2024/03/31 01:18:12;;;;;;;0.00;0.00;;;20.50;48.30;;;;;;5008379;28;20689;-47
2024/03/31 01:20:41;;;;;;;0.00;0.00;;;20.50;48.20;;;;;;5008677;28;20201;-46
2024/03/31 01:23:14;;;;;;;0.00;0.00;;;20.50;48.20;;;;;;5010424;28;20251;-47
2024/03/31 01:25:45;;;;;;;0.00;0.00;;;20.50;48.20;;;;;;5024277;28;20223;-48
2024/03/31 01:28:16;;;;;;;0.00;0.00;;;20.50;48.10;;;;;;5011352;28;20212;-49
2024/03/31 01:30:45;;;;;;;0.00;0.00;;;20.50;48.20;;;;;;5011405;28;20576;-47
2024/03/31 01:33:16;;;;;;;0.00;0.00;;;20.60;48.20;;;;;;5011441;28;20236;-49
2024/03/31 01:35:45;;;;;;;0.00;0.00;;;20.60;48.20;;;;;;5010707;28;20204;-49
2024/03/31 01:38:16;;;;;;;0.00;0.00;;;20.60;48.20;;;;;;5010159;28;20224;-47
2024/03/31 01:40:47;;;;;;;0.03;0.03;;;20.60;48.20;;;;;;5010361;28;20204;-47
2024/03/31 01:43:18;;;;;;;0.00;0.00;;;20.60;48.20;;;;;;5010683;28;20201;-48
2024/03/31 01:45:47;;;;;;;0.00;0.00;;;20.60;48.20;;;;;;5011122;28;20200;-47
2024/03/31 01:48:18;;;;;;;0.00;0.00;;;20.60;48.20;;;;;;5014440;28;20739;-47
2024/03/31 01:50:47;;;;;;;0.00;0.00;;;20.70;48.20;;;;;;5014305;28;20211;-46
2024/03/31 01:53:17;;;;;;;0.00;0.00;;;20.70;48.10;;;;;;5014343;28;20189;-47
2024/03/31 01:55:48;;;;;;;0.00;0.00;;;20.70;48.10;;;;;;5017541;28;20645;-47
2024/03/31 01:58:19;;;;;;;0.10;0.10;;;20.70;48.10;;;;;;5013538;28;20221;-46
2024/03/31 02:00:48;;;;;;;0.00;0.00;;;20.70;48.10;;;;;;5013438;28;20204;-47
2024/03/31 02:03:19;;;;;;;0.08;0.08;;;20.70;48.00;;;;;;5013204;28;20661;-49
2024/03/31 02:05:48;;;;;;;0.10;0.10;;;20.80;48.10;;;;;;5014088;28;20243;-49
2024/03/31 02:08:19;;;;;;;0.00;0.00;;;20.70;48.00;;;;;;5013651;28;20219;-47
2024/03/31 02:10:50;;;;;;;0.00;0.00;;;20.80;48.10;;;;;;5012691;28;20216;-50
2024/03/31 02:13:20;;;;;;;0.00;0.00;;;20.80;48.10;;;;;;5013782;28;20288;-46
2024/03/31 02:15:49;;;;;;;0.00;0.00;;;20.80;48.10;;;;;;5014067;28;20292;-45
2024/03/31 02:18:20;;;;;;;0.00;0.00;;;20.80;48.00;;;;;;5006107;28;20688;-49
2024/03/31 02:20:49;;;;;;;0.00;0.00;;;20.80;48.00;;;;;;4990630;28;20213;-48
2024/03/31 02:23:20;;;;;;;0.10;0.10;;;20.80;48.00;;;;;;4997850;28;20193;-51
2024/03/31 02:25:51;;;;;;;0.00;0.00;;;20.90;48.00;;;;;;5025543;28;20556;-50
2024/03/31 02:28:22;;;;;;;0.00;0.00;;;20.90;48.00;;;;;;5030440;28;20224;-49
2024/03/31 02:30:51;;;;;;;0.03;0.03;;;20.90;48.00;;;;;;5018668;28;20201;-51
2024/03/31 02:33:21;;;;;;;0.10;0.10;;;20.80;47.90;;;;;;5009560;28;20208;-51
2024/03/31 02:35:50;;;;;;;0.10;0.10;;;20.90;48.00;;;;;;5009554;28;20200;-49
2024/03/31 02:38:21;;;;;;;0.00;0.00;;;20.90;48.00;;;;;;5009502;28;20629;-50
2024/03/31 02:40:52;;;;;;;0.00;0.00;;;20.90;48.00;;;;;;5008621;28;20684;-48
2024/03/31 02:43:23;;;;;;;0.00;0.00;;;20.80;47.90;;;;;;5008572;28;20580;-49
2024/03/31 02:45:52;;;;;;;0.00;0.00;;;20.90;48.00;;;;;;5008871;28;20243;-47
2024/03/31 02:48:22;;;;;;;0.00;0.00;;;20.90;48.00;;;;;;5009153;28;20240;-47
2024/03/31 02:50:51;;;;;;;0.10;0.10;;;20.90;48.00;;;;;;5009187;28;20212;-53
2024/03/31 02:53:22;;;;;;;0.00;0.00;;;20.90;48.00;;;;;;5009759;28;20205;-50
2024/03/31 02:55:53;;;;;;;0.10;0.10;;;20.90;48.00;;;;;;5024883;28;20200;-48
2024/03/31 02:58:24;;;;;;;0.00;0.00;;;20.90;48.00;;;;;;5009090;28;20239;-52
2024/03/31 03:00:53;;;;;;;0.00;0.00;;;20.90;48.00;;;;;;5009572;28;20336;-48
2024/03/31 03:03:23;;;;;;;0.00;0.00;;;20.90;48.00;;;;;;5009550;28;20303;-47
2024/03/31 03:05:55;;;;;;;0.00;0.00;;;20.90;48.60;;;;;;5009291;28;20618;-49
2024/03/31 03:08:26;;;;;;;0.00;0.00;;;20.90;48.00;;;;;;4989012;28;20225;-50
2024/03/31 03:10:58;;;;;;;0.10;0.10;;;20.90;47.90;;;;;;4989203;28;20205;-49
2024/03/31 03:13:29;;;;;;;0.10;0.10;;;20.90;47.90;;;;;;4989899;28;20646;-47
2024/03/31 03:16:01;;;;;;;0.00;0.00;;;20.90;47.90;;;;;;4989030;28;20212;-51
2024/03/31 03:18:32;;;;;;;0.10;0.10;;;20.90;47.90;;;;;;4989435;28;20717;-46
2024/03/31 03:21:01;;;;;;;0.00;0.00;;;20.90;47.90;;;;;;4990253;28;20654;-47
2024/03/31 03:23:31;;;;;;;0.03;0.03;;;20.90;47.90;;;;;;5009184;28;20204;-47
2024/03/31 03:26:02;;;;;;;0.10;0.10;;;20.90;47.80;;;;;;5025603;28;20691;-47
2024/03/31 03:28:36;;;;;;;0.00;0.00;;;20.90;47.80;;;;;;5028676;28;20561;-52
2024/03/31 03:31:06;;;;;;;0.00;0.00;;;20.90;47.70;;;;;;5027533;28;20204;-50
2024/03/31 03:33:36;;;;;;;0.00;0.00;;;20.90;47.70;;;;;;5027926;28;20212;-48
2024/03/31 03:36:06;;;;;;;0.00;0.00;;;20.90;47.70;;;;;;5017406;28;20652;-45
2024/03/31 03:38:37;;;;;;;0.10;0.10;;;20.90;47.70;;;;;;5008180;28;20228;-46
2024/03/31 03:41:09;;;;;;;0.00;0.00;;;20.90;47.70;;;;;;5008414;28;20227;-47
2024/03/31 03:43:39;;;;;;;0.10;0.10;;;20.90;47.70;;;;;;5008136;28;20232;-48
2024/03/31 03:46:09;;;;;;;0.00;0.00;;;20.90;47.70;;;;;;5008830;28;20196;-50
2024/03/31 03:48:38;;;;;;;0.00;0.00;;;20.90;47.60;;;;;;5008559;28;20568;-49
2024/03/31 03:51:09;;;;;;;0.00;0.00;;;20.90;47.60;;;;;;5008602;28;20712;-49
2024/03/31 03:53:38;;;;;;;0.00;0.00;;;20.90;47.60;;;;;;5008299;28;20206;-49
2024/03/31 03:56:11;;;;;;;0.00;0.00;;;20.90;47.70;;;;;;5017685;28;20197;-48
2024/03/31 03:58:40;;;;;;;0.00;0.00;;;20.90;47.60;;;;;;5007636;28;20229;-50
2024/03/31 04:01:11;;;;;;;0.10;0.10;;;20.90;47.60;;;;;;5007866;28;20212;-48
2024/03/31 04:03:40;;;;;;;0.08;0.08;;;20.90;47.70;;;;;;5008614;28;20251;-49
2024/03/31 04:06:11;;;;;;;0.10;0.10;;;20.90;47.60;;;;;;5007908;28;20266;-50
2024/03/31 04:08:40;;;;;;;0.10;0.10;;;20.90;47.60;;;;;;5007060;28;20225;-47
2024/03/31 04:11:12;;;;;;;0.10;0.10;;;20.90;47.60;;;;;;5007661;28;20197;-48
2024/03/31 04:13:41;;;;;;;0.00;0.00;;;20.90;47.60;;;;;;5007734;28;20211;-51
2024/03/31 04:16:12;;;;;;;0.10;0.10;;;20.90;47.60;;;;;;5007863;28;20193;-49
2024/03/31 04:18:41;;;;;;;0.10;0.10;;;20.90;47.60;;;;;;5008085;28;20232;-50
2024/03/31 04:21:12;;;;;;;0.10;0.10;;;20.90;47.60;;;;;;5007911;28;20192;-48
2024/03/31 04:23:41;;;;;;;0.10;0.10;;;20.90;47.60;;;;;;5008015;28;20213;-53
2024/03/31 04:26:14;;;;;;;0.00;0.00;;;20.90;47.60;;;;;;5026419;28;20727;-48
2024/03/31 04:28:43;;;;;;;0.00;0.00;;;20.90;47.60;;;;;;5010102;28;20308;-48
2024/03/31 04:31:13;;;;;;;0.00;0.00;;;20.90;47.60;;;;;;5007643;28;20196;-47
2024/03/31 04:33:43;;;;;;;0.00;0.00;;;20.90;47.60;;;;;;5008192;28;20199;-49
2024/03/31 04:36:15;;;;;;;0.10;0.10;;;20.90;48.00;;;;;;5007528;28;20216;-50
2024/03/31 04:38:44;;;;;;;0.00;0.00;;;20.90;48.20;;;;;;5008177;28;20685;-48
2024/03/31 04:41:17;;;;;;;0.00;0.00;;;20.90;48.00;;;;;;5007399;28;20247;-49
2024/03/31 04:43:46;;;;;;;0.00;0.00;;;20.90;48.00;;;;;;5010999;28;20204;-46
2024/03/31 04:46:16;;;;;;;0.00;0.00;;;20.90;47.80;;;;;;5011710;28;20197;-47
2024/03/31 04:48:45;;;;;;;0.00;0.00;;;20.90;47.80;;;;;;5011708;28;20224;-48
2024/03/31 04:51:16;;;;;;;0.00;0.00;;;20.90;47.70;;;;;;5012385;28;20204;-50
2024/03/31 04:53:45;;;;;;;0.10;0.10;;;20.90;47.60;;;;;;5011983;28;20740;-49
2024/03/31 04:56:18;;;;;;;0.00;0.00;;;20.90;47.60;;;;;;5013810;28;20208;-49
2024/03/31 04:58:47;;;;;;;0.10;0.10;;;20.90;47.60;;;;;;5011162;28;20224;-49
2024/03/31 05:01:18;;;;;;;0.00;0.00;;;20.90;47.60;;;;;;5012080;28;20200;-49
2024/03/31 05:03:47;;;;;;;0.00;0.00;;;20.90;47.50;;;;;;5011331;28;20200;-48
2024/03/31 05:06:18;;;;;;;0.00;0.00;;;20.90;47.60;;;;;;5021071;28;20196;-47
2024/03/31 05:08:47;;;;;;;0.00;0.00;;;20.90;47.60;;;;;;5020221;28;20217;-49
2024/03/31 05:11:19;;;;;;;0.10;0.10;;;20.90;47.60;;;;;;5011935;28;20312;-47
2024/03/31 05:13:48;;;;;;;0.10;0.10;;;20.80;47.60;;;;;;5012168;28;20208;-48
2024/03/31 05:16:19;;;;;;;0.10;0.10;;;20.80;47.60;;;;;;5011422;28;20291;-49
2024/03/31 05:18:51;;;;;;;0.00;0.00;;;20.80;47.60;;;;;;5011006;28;20236;-47
2024/03/31 05:21:21;;;;;;;0.00;0.00;;;20.80;47.60;;;;;;5010483;28;20565;-47
2024/03/31 05:23:50;;;;;;;0.10;0.10;;;20.80;47.60;;;;;;5011191;28;20227;-47
2024/03/31 05:26:23;;;;;;;0.08;0.08;;;20.80;47.70;;;;;;5030027;28;20212;-50
2024/03/31 05:28:52;;;;;;;0.10;0.10;;;20.80;47.70;;;;;;5031687;28;20196;-48
2024/03/31 05:31:23;;;;;;;0.10;0.10;;;20.80;47.60;;;;;;5012294;28;20296;-46
2024/03/31 05:33:52;;;;;;;0.10;0.10;;;20.80;47.70;;;;;;4991647;28;20545;-47
2024/03/31 05:36:23;;;;;;;0.00;0.00;;;20.80;47.70;;;;;;5000716;28;20201;-47
2024/03/31 05:38:52;;;;;;;0.10;0.10;;;20.80;47.80;;;;;;5010346;28;20282;-48
2024/03/31 05:41:24;;;;;;;0.10;0.10;;;20.80;47.90;;;;;;5011020;28;20207;-49
2024/03/31 05:43:54;;;;;;;0.08;0.08;;;20.80;47.90;;;;;;5010795;28;20247;-47
2024/03/31 05:46:24;;;;;;;0.00;0.00;;;20.80;47.80;;;;;;5010423;28;20208;-49
2024/03/31 05:48:53;;;;;;;0.00;0.00;;;20.80;47.80;;;;;;5010380;28;20201;-45
2024/03/31 05:51:24;;;;;;;0.10;0.10;;;20.80;47.80;;;;;;5010672;28;20278;-46
2024/03/31 05:53:53;;;;;;;0.00;0.00;;;20.80;47.80;;;;;;5009737;28;20204;-47
2024/03/31 05:56:26;;;;;;;0.10;0.10;;;20.80;47.80;;;;;;5029241;28;20209;-46
2024/03/31 05:58:56;;;;;;;0.10;0.10;;;20.80;47.80;;;;;;5030251;28;20223;-45
2024/03/31 06:01:26;;;;;;;0.00;0.00;;;20.80;47.80;;;;;;5029894;28;20211;-46
2024/03/31 06:03:55;;;;;;;0.10;0.10;;;20.80;47.70;;;;;;5010695;28;20196;-49
2024/03/31 06:06:26;;;;;;;0.00;0.00;;;20.80;47.80;;;;;;5007956;28;20284;-47
2024/03/31 06:08:55;;;;;;;0.00;0.00;;;20.80;47.90;;;;;;5011030;28;20204;-48
2024/03/31 06:11:28;;;;;;;0.00;0.00;;;20.80;47.90;;;;;;5007524;28;20262;-47
2024/03/31 06:13:57;;;;;;;0.10;0.10;;;20.80;47.90;;;;;;5010224;28;20204;-48
2024/03/31 06:16:28;;;;;;;0.10;0.10;;;20.80;47.80;;;;;;5009358;28;20197;-46
2024/03/31 06:18:57;;;;;;;0.00;0.00;;;20.80;47.80;;;;;;5010023;28;20232;-47
2024/03/31 06:21:27;;;;;;;0.00;0.00;;;20.80;47.80;;;;;;5010715;28;20201;-48
2024/03/31 06:23:56;;;;;;;0.00;0.00;;;20.80;47.70;;;;;;5010106;28;20212;-47
2024/03/31 06:26:29;;;;;;;0.00;0.00;;;20.80;47.80;;;;;;4990112;28;20227;-46
2024/03/31 06:28:58;;;;;;;0.00;0.00;;;20.80;47.70;;;;;;5001838;28;20189;-48
2024/03/31 06:31:29;;;;;;;0.00;0.00;;;20.80;47.60;;;;;;5013420;28;20463;-47
2024/03/31 06:33:58;;;;;;;0.03;0.03;;;20.80;47.70;;;;;;5014206;28;20710;-47
2024/03/31 06:36:29;;;;;;;0.10;0.10;;;20.80;47.70;;;;;;5013175;28;20193;-45
2024/03/31 06:38:58;;;;;;;0.00;0.00;;;20.80;47.80;;;;;;5013143;28;20224;-46
2024/03/31 06:41:30;;;;;;;0.00;0.00;;;20.80;47.80;;;;;;5012672;28;20197;-46
2024/03/31 06:43:59;;;;;;;0.00;0.00;;;20.80;47.80;;;;;;5012712;28;20649;-46
2024/03/31 06:46:30;;;;;;;0.00;0.00;;;20.80;48.40;;;;;;5012401;28;20649;-46
2024/03/31 06:48:59;;;;;;;0.00;0.00;;;20.80;47.70;;;;;;5013653;28;20208;-46
2024/03/31 06:51:30;;;;;;;0.00;0.00;;;20.80;47.70;;;;;;5013563;28;20563;-46
2024/03/31 06:53:59;;;;;;;0.00;0.00;;;20.80;47.60;;;;;;5013934;28;20251;-45
2024/03/31 06:56:31;;;;;;;0.00;0.00;;;20.80;47.60;;;;;;5032819;28;20199;-46
2024/03/31 06:59:00;;;;;;;0.00;0.00;;;20.80;47.70;;;;;;5032508;28;20691;-48
2024/03/31 07:01:31;;;;;;;0.00;0.00;;;20.80;47.70;;;;;;5031806;28;20200;-46
2024/03/31 07:04:00;;;;;;;0.10;0.10;;;20.80;47.60;;;;;;5032573;28;20196;-46
2024/03/31 07:06:31;;;;;;;0.00;0.00;;;20.80;47.60;;;;;;5032653;28;20648;-46
2024/03/31 07:09:00;;;;;;;0.00;0.00;;;20.70;47.60;;;;;;5022352;28;20193;-48
2024/03/31 07:11:32;;;;;;;0.00;0.00;;;20.70;47.50;;;;;;5012949;28;20715;-48
2024/03/31 07:14:01;;;;;;;0.00;0.00;;;20.70;47.60;;;;;;5012921;28;20282;-46
2024/03/31 07:16:32;;;;;;;0.00;0.00;;;20.70;47.60;;;;;;5012186;28;20628;-46
2024/03/31 07:19:01;;;;;;;0.10;0.10;;;20.70;47.50;;;;;;5012730;28;20232;-50
2024/03/31 07:21:32;;;;;;;0.10;0.10;;;20.70;47.60;;;;;;5011427;28;20219;-50
2024/03/31 07:24:01;;;;;;;0.00;0.00;;;20.70;47.50;;;;;;5012912;28;20209;-47
2024/03/31 07:26:34;;;;;;;0.00;0.00;;;20.70;47.50;;;;;;5031920;28;20262;-49
2024/03/31 07:29:03;;;;;;;0.00;0.00;;;20.70;47.50;;;;;;5031505;28;20257;-47
2024/03/31 07:31:34;;;;;;;0.00;0.00;;;20.70;47.50;;;;;;5031938;28;20196;-49
2024/03/31 07:34:04;;;;;;;0.00;0.00;;;20.70;47.50;;;;;;5032710;28;20594;-48
2024/03/31 07:36:35;;;;;;;0.00;0.00;;;20.70;47.50;;;;;;5032069;28;20196;-45
2024/03/31 07:39:04;;;;;;;0.00;0.00;;;20.70;47.50;;;;;;5032221;28;20523;-46
2024/03/31 07:41:37;;;;;;;0.00;0.00;;;20.70;47.50;;;;;;5032221;28;20200;-49
2024/03/31 07:44:06;;;;;;;0.10;0.10;;;20.60;47.50;;;;;;5031707;28;20200;-47
2024/03/31 07:46:36;;;;;;;0.00;0.00;;;20.60;47.50;;;;;;5032247;28;20279;-46
2024/03/31 07:49:06;;;;;;;0.05;0.05;;;20.60;47.50;;;;;;5031852;28;20200;-46
2024/03/31 07:51:37;;;;;;;0.00;0.00;;;20.60;48.10;;;;;;5032336;28;20242;-46
2024/03/31 07:54:07;;;;;;;0.05;0.05;;;20.60;47.50;;;;;;5031845;28;20208;-46
2024/03/31 07:56:39;;;;;;;0.00;0.00;;;20.60;47.50;;;;;;5030812;28;20243;-47
2024/03/31 07:59:08;;;;;;;0.00;0.00;;;20.60;47.50;;;;;;5010842;28;20220;-47
2024/03/31 08:01:39;;;;;;;0.00;0.00;;;20.60;47.50;;;;;;5011587;28;20193;-45
2024/03/31 08:04:08;;;;;;;0.00;0.00;;;20.60;47.50;;;;;;5011711;28;20197;-46
2024/03/31 08:06:39;;;;;;;0.10;0.10;;;20.60;47.50;;;;;;5011634;28;20199;-45
2024/03/31 08:09:08;;;;;;;0.00;0.00;;;20.60;47.60;;;;;;5012249;28;20197;-46
2024/03/31 08:11:40;;;;;;;0.00;0.00;;;20.60;47.50;;;;;;5011873;28;20196;-46
2024/03/31 08:14:10;;;;;;;0.00;0.00;;;20.60;47.50;;;;;;5011078;28;20661;-50
2024/03/31 08:16:40;;;;;;;0.10;0.10;;;20.60;47.40;;;;;;5011470;28;20203;-48
2024/03/31 08:19:09;;;;;;;0.10;0.10;;;20.60;47.40;;;;;;5010824;28;20228;-47
2024/03/31 08:21:42;;;;;;;0.10;0.10;;;20.60;47.40;;;;;;5011965;28;20283;-47
2024/03/31 08:24:11;;;;;;;0.00;0.00;;;20.60;47.40;;;;;;5013586;28;20204;-46
2024/03/31 08:26:43;;;;;;;0.05;0.05;;;20.60;47.40;;;;;;5031277;28;20214;-46
2024/03/31 08:29:13;;;;;;;0.00;0.00;;;20.50;47.40;;;;;;5023754;28;20263;-47
2024/03/31 08:31:43;;;;;;;0.03;0.03;;;20.50;47.40;;;;;;5011965;28;20200;-46
2024/03/31 08:34:12;;;;;;;0.00;0.00;;;20.50;47.40;;;;;;5012124;28;20575;-46
2024/03/31 08:36:43;;;;;;;0.00;0.00;;;20.50;47.40;;;;;;5011592;28;20270;-47
2024/03/31 08:39:12;;;;;;;0.03;0.03;;;20.50;47.40;;;;;;5011457;28;20595;-45
2024/03/31 08:41:52;;;;;;;0.00;0.00;;;20.50;47.40;;;;;;5011177;28;20201;-46
2024/03/31 08:44:22;;;;;;;0.00;0.00;;;20.50;47.40;;;;;;5010741;28;20192;-46
2024/03/31 08:46:54;;;;;;;0.00;0.00;;;20.50;47.40;;;;;;5010845;28;20221;-46
2024/03/31 08:49:24;;;;;;;0.00;0.00;;;20.50;47.40;;;;;;5010831;28;20247;-47
2024/03/31 08:51:55;;;;;;;0.08;0.08;;;20.50;47.40;;;;;;5011659;28;20645;-46
2024/03/31 08:54:26;;;;;;;0.00;0.00;;;20.50;47.40;;;;;;5011579;28;20197;-47
2024/03/31 08:56:58;;;;;;;0.10;0.10;;;20.50;47.40;;;;;;5011369;28;20299;-46
2024/03/31 08:59:27;;;;;;;0.10;0.10;;;20.50;47.40;;;;;;5010971;28;20236;-46
2024/03/31 09:02:00;;;;;;;0.10;0.10;;;20.50;47.40;;;;;;5011258;28;20205;-46
2024/03/31 09:04:29;;;;;;;0.00;0.00;;;20.50;47.40;;;;;;5011162;28;20193;-46
2024/03/31 09:07:00;;;;;;;0.00;0.00;;;20.40;47.40;;;;;;5011442;28;20308;-47
2024/03/31 09:09:29;;;;;;;0.10;0.10;;;20.40;47.40;;;;;;5011472;28;20196;-46
2024/03/31 09:12:02;;;;;;;0.10;0.10;;;20.40;47.40;;;;;;5010742;28;20199;-47
2024/03/31 09:14:33;;;;;;;0.00;0.00;;;20.40;47.40;;;;;;5010811;28;20563;-46
2024/03/31 09:17:04;;;;;;;0.00;0.00;;;20.40;47.30;;;;;;5011388;28;20655;-46
2024/03/31 09:19:33;;;;;;;0.00;0.00;;;20.40;47.50;;;;;;5011108;28;20243;-46
2024/03/31 09:22:04;;;;;;;0.00;0.00;;;20.40;48.40;;;;;;5010188;28;20284;-46
2024/03/31 09:24:33;;;;;;;0.00;0.00;;;20.50;49.10;;;;;;5008680;28;20204;-47
2024/03/31 09:27:07;;;;;;;0.00;0.00;;;20.50;49.20;;;;;;5006424;28;20638;-49
2024/03/31 09:29:42;;;;;;;0.00;0.00;;;20.50;49.00;;;;;;5008499;28;20205;-49
2024/03/31 09:32:16;;;;;;;0.00;0.00;;;20.50;48.80;;;;;;5011619;28;20392;-46
2024/03/31 09:34:46;;;;;;;0.00;0.00;;;20.60;48.70;;;;;;5010814;28;20232;-47
2024/03/31 09:37:17;;;;;;;0.00;0.00;;;20.50;48.40;;;;;;5010886;28;20224;-46
2024/03/31 09:39:46;;;;;;;0.00;0.00;;;20.50;48.40;;;;;;5010850;28;20704;-46
2024/03/31 09:42:19;;;;;;;0.00;0.00;;;20.50;48.30;;;;;;5010109;28;20197;-49
2024/03/31 09:44:48;;;;;;;0.10;0.10;;;20.50;48.30;;;;;;5010429;28;20263;-47
2024/03/31 09:47:27;;;;;;;0.00;0.00;;;20.50;48.30;;;;;;5010247;28;20603;-47
2024/03/31 09:50:04;;;;;;;0.00;0.00;;;20.50;48.20;;;;;;5011268;28;20212;-46
2024/03/31 09:52:37;;;;;;;0.10;0.10;;;20.50;48.20;;;;;;4993308;28;20228;-48
2024/03/31 09:55:10;;;;;;;0.00;0.00;;;20.50;48.20;;;;;;5019769;28;20204;-48
2024/03/31 09:57:46;;;;;;;0.00;0.00;;;20.50;48.10;;;;;;5029204;28;20285;-48
2024/03/31 10:00:17;;;;;;;0.00;0.00;;;20.50;48.70;;;;;;5029707;28;20223;-46
2024/03/31 10:02:52;;;;;;;0.00;0.00;;;20.50;48.10;;;;;;5016031;28;20208;-48
2024/03/31 10:05:28;;;;;;;0.00;0.00;;;20.50;48.10;;;;;;4990515;28;20737;-47
2024/03/31 10:08:01;;;;;;;0.10;0.10;;;20.50;48.10;;;;;;4991004;28;20280;-47
2024/03/31 10:10:32;;;;;;;0.00;0.00;;;20.50;48.00;;;;;;4990129;28;20201;-48
2024/03/31 10:13:08;;;;;;;0.10;0.10;;;20.40;48.00;;;;;;4990226;28;20369;-47
2024/03/31 10:15:38;;;;;;;0.00;0.00;;;20.40;48.00;;;;;;5000436;28;20209;-46
2024/03/31 10:18:14;;;;;;;0.00;0.00;;;20.40;48.00;;;;;;5009734;28;20231;-46
2024/03/31 10:20:45;;;;;;;0.00;0.00;;;20.40;48.00;;;;;;5010418;28;20204;-45
2024/03/31 10:23:17;;;;;;;0.00;0.00;;;20.40;47.90;;;;;;5010507;28;20200;-47
2024/03/31 10:25:47;;;;;;;0.00;0.00;;;20.40;48.00;;;;;;5024370;28;20216;-45
2024/03/31 10:28:19;;;;;;;0.05;0.05;;;20.40;47.90;;;;;;5029531;28;20224;-47
2024/03/31 10:30:49;;;;;;;0.10;0.10;;;20.30;47.90;;;;;;5023856;28;20209;-46
2024/03/31 10:33:20;;;;;;;0.00;0.00;;;20.30;47.90;;;;;;5010249;28;20587;-47
2024/03/31 10:35:49;;;;;;;0.10;0.10;;;20.30;47.90;;;;;;5009994;28;20196;-46
2024/03/31 10:38:20;;;;;;;0.00;0.00;;;20.30;47.90;;;;;;5009547;28;20225;-47
2024/03/31 10:40:50;;;;;;;0.00;0.00;;;20.30;47.90;;;;;;5009276;28;20721;-47
2024/03/31 10:43:22;;;;;;;0.00;0.00;;;20.30;47.90;;;;;;5009116;28;20200;-47
2024/03/31 10:45:52;;;;;;;0.00;0.00;;;20.30;47.90;;;;;;5009598;28;20276;-48
2024/03/31 10:48:24;;;;;;;0.00;0.00;;;20.30;47.90;;;;;;5018940;28;20955;-47
2024/03/31 10:50:53;;;;;;;0.00;0.00;;;20.30;47.80;;;;;;5012527;28;20197;-46
2024/03/31 10:53:29;;;;;;;0.00;0.00;;;20.30;47.80;;;;;;5009768;28;20228;-50
2024/03/31 10:55:58;;;;;;;0.00;0.00;;;20.30;47.80;;;;;;5015450;28;20196;-46
2024/03/31 10:58:33;;;;;;;0.10;0.10;;;20.30;48.10;;;;;;5009429;28;20604;-49
2024/03/31 11:01:04;;;;;;;0.10;0.10;;;20.30;48.50;;;;;;5008211;28;20204;-46
2024/03/31 11:03:35;;;;;;;0.10;0.10;;;20.30;48.40;;;;;;5008521;28;20201;-49
2024/03/31 11:06:06;;;;;;;0.00;0.00;;;20.30;48.30;;;;;;5009155;28;20205;-46
2024/03/31 11:08:38;;;;;;;0.03;0.03;;;20.30;48.30;;;;;;5009384;28;20228;-46
2024/03/31 11:11:07;;;;;;;0.00;0.00;;;20.30;48.30;;;;;;5009100;28;20549;-46
2024/03/31 11:13:42;;;;;;;0.00;0.00;;;20.30;48.30;;;;;;5009420;28;20203;-46
2024/03/31 11:16:11;;;;;;;0.05;0.05;;;20.30;48.30;;;;;;5009449;28;20204;-48
2024/03/31 11:18:42;;;;;;;0.00;0.00;;;20.30;48.30;;;;;;5008309;28;20770;-45
2024/03/31 11:21:15;;;;;;;0.10;0.10;;;20.30;48.40;;;;;;5009711;28;20204;-49
2024/03/31 11:23:46;;;;;;;0.08;0.08;;;20.20;48.30;;;;;;5008153;28;20197;-49
2024/03/31 11:26:17;;;;;;;0.00;0.00;;;20.20;48.40;;;;;;5027991;28;20295;-47
2024/03/31 11:28:53;;;;;;;0.00;0.00;;;20.30;48.40;;;;;;5028633;28;20226;-47
2024/03/31 11:31:23;;;;;;;0.10;0.10;;;20.30;48.40;;;;;;5029007;28;20200;-47
2024/03/31 11:33:54;;;;;;;0.00;0.00;;;20.30;48.40;;;;;;5029429;28;20200;-46
2024/03/31 11:36:23;;;;;;;0.00;0.00;;;20.30;48.50;;;;;;5011895;28;20214;-46
2024/03/31 11:38:54;;;;;;;0.10;0.10;;;20.30;48.50;;;;;;5009030;28;20262;-45
2024/03/31 11:41:23;;;;;;;0.10;0.10;;;20.30;48.50;;;;;;5008555;28;20208;-48
2024/03/31 11:43:56;;;;;;;0.00;0.00;;;20.30;48.50;;;;;;5009369;28;20208;-46
2024/03/31 11:46:25;;;;;;;0.05;0.05;;;20.30;48.60;;;;;;5008077;28;20201;-48
2024/03/31 11:48:56;;;;;;;0.00;0.00;;;20.20;48.50;;;;;;5008383;28;20319;-46
2024/03/31 11:51:25;;;;;;;0.00;0.00;;;20.20;48.50;;;;;;5008142;28;20568;-45
2024/03/31 11:53:57;;;;;;;0.00;0.00;;;20.20;48.50;;;;;;5007568;28;20201;-46
2024/03/31 11:56:26;;;;;;;0.00;0.00;;;20.20;48.70;;;;;;5008099;28;20701;-46
2024/03/31 11:58:59;;;;;;;0.10;0.10;;;20.20;48.70;;;;;;5009786;28;20221;-47
2024/03/31 12:01:28;;;;;;;0.00;0.00;;;20.20;48.90;;;;;;5011946;28;20200;-46
2024/03/31 12:03:59;;;;;;;0.10;0.10;;;20.20;48.90;;;;;;5011500;28;20243;-45
2024/03/31 12:06:28;;;;;;;0.00;0.00;;;20.20;48.90;;;;;;4992575;28;20198;-46
2024/03/31 12:09:00;;;;;;;0.10;0.10;;;20.20;48.90;;;;;;4992147;28;20197;-45
2024/03/31 12:11:29;;;;;;;0.00;0.00;;;20.20;48.90;;;;;;4991771;28;20197;-44
2024/03/31 12:14:02;;;;;;;0.00;0.00;;;20.20;48.90;;;;;;4992022;28;20285;-45
2024/03/31 12:16:31;;;;;;;0.10;0.10;;;20.20;48.90;;;;;;4992219;28;20205;-45
2024/03/31 12:19:02;;;;;;;0.00;0.00;;;20.20;48.90;;;;;;5001757;28;20308;-45
2024/03/31 12:21:31;;;;;;;0.03;0.03;;;20.20;48.80;;;;;;5011613;28;20197;-45
2024/03/31 12:24:03;;;;;;;0.00;0.00;;;20.20;48.80;;;;;;5012487;28;20589;-45
2024/03/31 12:26:33;;;;;;;0.08;0.08;;;20.20;48.80;;;;;;5031205;28;20287;-45
2024/03/31 12:29:06;;;;;;;0.00;0.00;;;20.20;48.70;;;;;;5015257;28;20233;-45
2024/03/31 12:31:36;;;;;;;0.00;0.00;;;20.20;48.70;;;;;;5011421;28;20216;-44
2024/03/31 12:34:07;;;;;;;0.10;0.10;;;20.10;48.70;;;;;;5011528;28;20189;-46
2024/03/31 12:36:37;;;;;;;0.05;0.05;;;20.10;48.70;;;;;;5008780;28;20189;-45
2024/03/31 12:39:10;;;;;;;0.00;0.00;;;20.10;48.70;;;;;;5011416;28;20212;-45
2024/03/31 12:41:42;;;;;;;0.10;0.10;;;20.10;48.60;;;;;;5008959;28;20215;-45
2024/03/31 12:44:14;;;;;;;0.10;0.10;;;20.10;48.70;;;;;;5010923;28;20192;-45
2024/03/31 12:46:44;;;;;;;0.10;0.10;;;20.10;48.60;;;;;;5010608;28;20189;-44
2024/03/31 12:49:15;;;;;;;0.10;0.10;;;20.10;48.60;;;;;;5010880;28;20663;-45
2024/03/31 12:51:51;;;;;;;0.05;0.05;;;20.10;48.60;;;;;;5010794;28;20204;-45
2024/03/31 12:54:23;;;;;;;0.00;0.00;;;20.10;48.60;;;;;;5010546;28;20200;-47
2024/03/31 12:56:52;;;;;;;0.00;0.00;;;20.10;48.60;;;;;;4991527;28;20222;-44
2024/03/31 12:59:24;;;;;;;0.05;0.05;;;20.10;48.60;;;;;;4991858;28;20759;-45
2024/03/31 13:01:59;;;;;;;0.00;0.00;;;20.10;48.60;;;;;;4992305;28;20205;-45
2024/03/31 13:04:29;;;;;;;0.00;0.00;;;20.10;48.50;;;;;;4994130;28;20201;-45